Terminal Aerodrome Forecast
Issued by NWS

Home | Current Version | Previous Version | Text Only | Print | Product List | Glossary On
Versions: 1 2 3 4 5 6 7 8 9 10 11 12 13 14 15 16 17 18 19 20 21 22 23 24 25 26 27 28 29 30 31 32 33 34
000
FTUS44 KOHX 290900 AAB
TAFCKV
TAF AMD
KCKV 290920Z 2909/3006 02007KT P6SM VCSH OVC009
      TEMPO 2909/2913 4SM BR
     FM291300 02008KT P6SM BKN015
     FM291800 01008KT P6SM BKN035
     FM300200 01008KT P6SM SCT035=

USA.gov is the U.S. government's official web portal to all federal, state and local government web resources and services.